Time;durP1;ratioP1;P1;durP2;ratioP2;P2;SDS_P1;SDS_P2;PMS_P1;PMS_P2;Temp;Humidity;BMP_temperature;BMP_pressure;BME280_temperature;BME280_humidity;BME280_pressure;Samples;Min_cycle;Max_cycle;Signal;HPM_P1;HPM_P2
2024/04/20 00:01:17;;;;;;;;;;;;;;;5.80;86.34;95352.61;108304;1285;124781;-91
2024/04/20 00:03:43;;;;;;;;;;;;;;;5.79;86.31;95352.36;108468;1281;22560;-90
2024/04/20 00:06:13;;;;;;;;;;;;;;;5.78;86.28;95348.83;108181;1285;124942;-91
2024/04/20 00:08:39;;;;;;;;;;;;;;;5.77;86.38;95347.35;108425;1284;22503;-91
2024/04/20 00:11:08;;;;;;;;;;;;;;;5.77;86.30;95348.27;108423;1277;22515;-91
2024/04/20 00:13:37;;;;;;;;;;;;;;;5.77;86.08;95345.69;108275;1281;124781;-91
2024/04/20 00:16:04;;;;;;;;;;;;;;;5.77;86.15;95337.50;108464;1285;22538;-91
2024/04/20 00:18:32;;;;;;;;;;;;;;;5.78;86.38;95340.06;108305;1285;124920;-91
2024/04/20 00:20:59;;;;;;;;;;;;;;;5.79;86.24;95339.23;108387;1283;23797;-91
2024/04/20 00:23:27;;;;;;;;;;;;;;;5.80;86.40;95334.17;108367;1278;22554;-91
2024/04/20 00:25:54;;;;;;;;;;;;;;;5.79;86.12;95332.77;108271;1279;125186;-91
2024/04/20 00:28:23;;;;;;;;;;;;;;;5.79;86.36;95329.61;108436;1284;22540;-91
2024/04/20 00:30:59;;;;;;;;;;;;;;;5.76;86.58;95323.46;108322;1285;125380;-91
2024/04/20 00:33:27;;;;;;;;;;;;;;;5.76;86.81;95325.59;108407;1285;23283;-91
2024/04/20 00:35:53;;;;;;;;;;;;;;;5.74;86.78;95331.77;108458;1285;22529;-91
2024/04/20 00:38:19;;;;;;;;;;;;;;;5.75;87.21;95332.77;108292;1280;124853;-92
2024/04/20 00:40:52;;;;;;;;;;;;;;;5.72;87.96;95336.10;108374;1263;22622;-91
2024/04/20 00:43:18;;;;;;;;;;;;;;;5.70;87.65;95337.03;108317;1285;125047;-90
2024/04/20 00:45:45;;;;;;;;;;;;;;;5.68;88.21;95335.90;108399;1280;22561;-91
2024/04/20 00:48:11;;;;;;;;;;;;;;;5.65;88.61;95339.20;108317;1280;124984;-91
2024/04/20 00:50:39;;;;;;;;;;;;;;;5.62;88.75;95336.51;108412;1279;22533;-91
2024/04/20 00:53:09;;;;;;;;;;;;;;;5.62;88.58;95337.65;108318;1282;22521;-91
2024/04/20 00:55:35;;;;;;;;;;;;;;;5.62;88.84;95342.13;108312;1282;124788;-90
2024/04/20 00:58:04;;;;;;;;;;;;;;;5.59;89.46;95338.29;108325;1279;22535;-90
2024/04/20 01:00:30;;;;;;;;;;;;;;;5.54;90.16;95332.84;108250;1280;125426;-91
2024/04/20 01:02:57;;;;;;;;;;;;;;;5.51;90.47;95333.95;108408;1280;24407;-91
2024/04/20 01:05:23;;;;;;;;;;;;;;;5.47;90.41;95333.30;108311;1282;22532;-91
2024/04/20 01:07:50;;;;;;;;;;;;;;;5.47;89.74;95330.80;108289;1285;124793;-91
2024/04/20 01:10:16;;;;;;;;;;;;;;;5.48;89.52;95330.73;108467;1285;23872;-91
2024/04/20 01:12:43;;;;;;;;;;;;;;;5.47;89.69;95333.15;108280;1283;125266;-92
2024/04/20 01:15:09;;;;;;;;;;;;;;;5.48;89.74;95334.23;108363;1283;23212;-92
2024/04/20 01:17:35;;;;;;;;;;;;;;;5.48;90.04;95335.65;108407;1280;22627;-92
2024/04/20 01:20:02;;;;;;;;;;;;;;;5.47;90.38;95338.81;108291;1285;124831;-91
2024/04/20 01:22:28;;;;;;;;;;;;;;;5.46;90.76;95338.29;108391;1282;22579;-90
2024/04/20 01:24:55;;;;;;;;;;;;;;;5.45;91.13;95337.71;108252;1283;125024;-89
2024/04/20 01:27:22;;;;;;;;;;;;;;;5.42;91.29;95336.65;108329;1285;22548;-90
2024/04/20 01:29:50;;;;;;;;;;;;;;;5.40;91.79;95334.48;108430;1285;22566;-90
2024/04/20 01:32:19;;;;;;;;;;;;;;;5.38;91.78;95335.05;108279;1283;124739;-91
2024/04/20 01:34:45;;;;;;;;;;;;;;;5.37;91.70;95334.83;108341;1281;22601;-90
2024/04/20 01:37:11;;;;;;;;;;;;;;;5.37;91.86;95338.09;108286;1280;124743;-90
2024/04/20 01:39:43;;;;;;;;;;;;;;;5.38;91.64;95341.23;108389;1280;22535;-90
2024/04/20 01:42:09;;;;;;;;;;;;;;;5.36;91.99;95336.63;108353;1280;22502;-91
2024/04/20 01:44:38;;;;;;;;;;;;;;;5.36;92.03;95340.61;108345;1279;124659;-90
2024/04/20 01:47:06;;;;;;;;;;;;;;;5.36;91.75;95340.09;108391;1283;22534;-90
2024/04/20 01:49:33;;;;;;;;;;;;;;;5.35;92.19;95340.02;108196;1286;124732;-91
2024/04/20 01:51:59;;;;;;;;;;;;;;;5.35;92.01;95339.85;108395;1285;22506;-91
2024/04/20 01:54:29;;;;;;;;;;;;;;;5.35;92.20;95338.95;108228;1286;125020;-90
2024/04/20 01:56:57;;;;;;;;;;;;;;;5.35;91.96;95343.66;108399;1280;22550;-92
2024/04/20 01:59:26;;;;;;;;;;;;;;;5.34;92.23;95343.57;108381;1278;25894;-92
2024/04/20 02:01:57;;;;;;;;;;;;;;;5.34;92.01;95340.98;108350;1278;124952;-92
2024/04/20 02:04:24;;;;;;;;;;;;;;;5.34;92.10;95342.50;108336;1285;22561;-91
2024/04/20 02:06:50;;;;;;;;;;;;;;;5.34;92.02;95347.29;108304;1279;124920;-91
2024/04/20 02:09:17;;;;;;;;;;;;;;;5.35;91.96;95348.02;108316;1286;22509;-91
2024/04/20 02:11:45;;;;;;;;;;;;;;;5.34;92.30;95345.23;108368;1278;22578;-91
2024/04/20 02:14:12;;;;;;;;;;;;;;;5.33;92.19;95349.46;108347;1279;125152;-91
2024/04/20 02:16:40;;;;;;;;;;;;;;;5.32;92.43;95348.06;108418;1280;22657;-91
2024/04/20 02:19:09;;;;;;;;;;;;;;;5.33;91.95;95350.17;108311;1277;124773;-91
2024/04/20 02:21:36;;;;;;;;;;;;;;;5.34;92.22;95354.34;108437;1286;22531;-91
2024/04/20 02:24:02;;;;;;;;;;;;;;;5.34;91.54;95350.23;108408;1280;22534;-91
2024/04/20 02:26:29;;;;;;;;;;;;;;;5.35;92.17;95351.83;108360;1285;124611;-90
2024/04/20 02:29:00;;;;;;;;;;;;;;;5.36;91.99;95356.23;108443;1279;22546;-90
2024/04/20 02:31:27;;;;;;;;;;;;;;;5.35;92.20;95353.57;108251;1283;125644;-91
2024/04/20 02:33:54;;;;;;;;;;;;;;;5.35;91.90;95354.63;108387;1280;24247;-90
2024/04/20 02:36:24;;;;;;;;;;;;;;;5.35;92.14;95352.50;108330;1283;125038;-90
2024/04/20 02:38:50;;;;;;;;;;;;;;;5.35;91.89;95351.86;108347;1284;23183;-91
2024/04/20 02:41:16;;;;;;;;;;;;;;;5.36;92.24;95350.93;108400;1280;22516;-91
2024/04/20 02:43:43;;;;;;;;;;;;;;;5.36;92.24;95350.39;108325;1283;124755;-92
2024/04/20 02:46:09;;;;;;;;;;;;;;;5.38;92.90;95350.14;108433;1277;22544;-92
2024/04/20 02:48:35;;;;;;;;;;;;;;;5.37;93.02;95352.47;108297;1280;125570;-91
2024/04/20 02:51:02;;;;;;;;;;;;;;;5.33;93.44;95352.81;108427;1278;25382;-91
2024/04/20 02:53:28;;;;;;;;;;;;;;;5.30;94.20;95350.55;108359;1278;24276;-91
2024/04/20 02:55:54;;;;;;;;;;;;;;;5.27;93.98;95351.91;108336;1280;124819;-91
2024/04/20 02:58:23;;;;;;;;;;;;;;;5.27;94.11;95345.80;108377;1280;22532;-91
2024/04/20 03:00:59;;;;;;;;;;;;;;;5.25;94.42;95346.05;108236;1283;125043;-91
2024/04/20 03:03:26;;;;;;;;;;;;;;;5.21;94.53;95343.55;108405;1279;22584;-91
2024/04/20 03:05:53;;;;;;;;;;;;;;;5.19;94.79;95349.80;108453;1277;22512;-92
2024/04/20 03:08:19;;;;;;;;;;;;;;;5.17;95.63;95349.35;108271;1280;124847;-92
2024/04/20 03:10:45;;;;;;;;;;;;;;;5.12;95.32;95347.81;108326;1285;22457;-92
2024/04/20 03:13:15;;;;;;;;;;;;;;;5.09;95.33;95349.52;108347;1284;124834;-92
2024/04/20 03:15:42;;;;;;;;;;;;;;;5.07;95.81;95349.33;108339;1285;22648;-92
2024/04/20 03:18:08;;;;;;;;;;;;;;;5.05;96.45;95350.52;108427;1285;25384;-91
2024/04/20 03:20:35;;;;;;;;;;;;;;;5.02;96.40;95350.80;108431;1285;124554;-91
2024/04/20 03:23:03;;;;;;;;;;;;;;;5.00;96.47;95352.91;108361;1284;23219;-91
2024/04/20 03:25:30;;;;;;;;;;;;;;;4.99;96.44;95352.15;108335;1278;125140;-92
2024/04/20 03:27:59;;;;;;;;;;;;;;;4.99;96.97;95353.54;108390;1280;23062;-89
2024/04/20 03:30:27;;;;;;;;;;;;;;;4.98;97.35;95357.91;108264;1283;124920;-90
2024/04/20 03:32:56;;;;;;;;;;;;;;;4.99;97.53;95359.23;108334;1283;25944;-89
2024/04/20 03:35:22;;;;;;;;;;;;;;;4.98;97.74;95358.83;108400;1280;22494;-89
2024/04/20 03:37:51;;;;;;;;;;;;;;;4.93;97.76;95360.13;108317;1283;124867;-89
2024/04/20 03:40:20;;;;;;;;;;;;;;;4.89;97.55;95361.63;108382;1280;22546;-89
2024/04/20 03:42:46;;;;;;;;;;;;;;;4.86;97.81;95357.03;108359;1274;125012;-90
2024/04/20 03:45:15;;;;;;;;;;;;;;;4.81;98.59;95356.52;108328;1280;22542;-89
2024/04/20 03:47:42;;;;;;;;;;;;;;;4.77;98.38;95358.88;108351;1280;22523;-90
2024/04/20 03:50:11;;;;;;;;;;;;;;;4.77;98.62;95353.75;108352;1280;124900;-90
2024/04/20 03:52:37;;;;;;;;;;;;;;;4.76;98.20;95356.23;108486;1280;25338;-91
2024/04/20 03:55:04;;;;;;;;;;;;;;;4.76;98.38;95358.23;108276;1277;124738;-91
2024/04/20 03:57:37;;;;;;;;;;;;;;;4.76;98.19;95362.52;108398;1276;22586;-91
2024/04/20 04:00:05;;;;;;;;;;;;;;;4.75;98.23;95361.43;108442;1277;22476;-91
2024/04/20 04:02:32;;;;;;;;;;;;;;;4.72;98.60;95358.64;108260;1280;124778;-90
2024/04/20 04:04:58;;;;;;;;;;;;;;;4.69;98.80;95359.80;108373;1282;22535;-91
2024/04/20 04:07:25;;;;;;;;;;;;;;;4.68;99.29;95362.04;108293;1283;124826;-90
2024/04/20 04:09:51;;;;;;;;;;;;;;;4.67;98.83;95365.55;108451;1278;24802;-90
2024/04/20 04:12:18;;;;;;;;;;;;;;;4.67;99.51;95368.28;108242;1283;124908;-90
2024/04/20 04:14:44;;;;;;;;;;;;;;;4.66;98.98;95368.00;108373;1285;22546;-91
2024/04/20 04:17:10;;;;;;;;;;;;;;;4.68;98.97;95372.50;108336;1285;22706;-91
2024/04/20 04:19:37;;;;;;;;;;;;;;;4.70;99.45;95372.92;108284;1285;124866;-91
2024/04/20 04:22:03;;;;;;;;;;;;;;;4.73;99.43;95375.05;108463;1285;22579;-90
2024/04/20 04:24:30;;;;;;;;;;;;;;;4.72;99.17;95376.13;108342;1280;124949;-91
2024/04/20 04:27:23;;;;;;;;;;;;;;;4.74;99.34;95380.39;108339;1282;25221;-91
2024/04/20 04:29:50;;;;;;;;;;;;;;;4.75;99.40;95385.08;108416;1279;22546;-91
2024/04/20 04:32:16;;;;;;;;;;;;;;;4.75;98.84;95387.17;108314;1277;124810;-90
2024/04/20 04:34:42;;;;;;;;;;;;;;;4.77;98.81;95384.31;108408;1277;24368;-91
2024/04/20 04:37:12;;;;;;;;;;;;;;;4.80;99.32;95387.93;108320;1280;125157;-91
2024/04/20 04:39:39;;;;;;;;;;;;;;;4.82;98.57;95387.56;108434;1277;22611;-91
2024/04/20 04:42:07;;;;;;;;;;;;;;;4.83;98.81;95388.94;108365;1277;22557;-90
2024/04/20 04:44:37;;;;;;;;;;;;;;;4.85;98.78;95388.61;108268;1280;124777;-91
2024/04/20 04:47:04;;;;;;;;;;;;;;;4.86;98.76;95394.88;108435;1286;23265;-90
2024/04/20 04:49:31;;;;;;;;;;;;;;;4.86;98.25;95393.26;108484;1285;124751;-90
2024/04/20 04:51:57;;;;;;;;;;;;;;;4.86;98.02;95404.77;108422;1277;22711;-90
2024/04/20 04:54:26;;;;;;;;;;;;;;;4.85;98.82;95407.77;108217;1286;125025;-90
2024/04/20 04:56:55;;;;;;;;;;;;;;;4.82;98.57;95413.20;108303;1283;22610;-89
2024/04/20 04:59:22;;;;;;;;;;;;;;;4.83;98.71;95414.03;108401;1286;22512;-90
2024/04/20 05:01:51;;;;;;;;;;;;;;;4.80;99.09;95414.50;108305;1286;124963;-90
2024/04/20 05:04:17;;;;;;;;;;;;;;;4.79;99.45;95418.44;108376;1280;22588;-89
2024/04/20 05:06:46;;;;;;;;;;;;;;;4.77;99.06;95422.38;108306;1283;125001;-89
2024/04/20 05:09:12;;;;;;;;;;;;;;;4.78;99.42;95425.95;108309;1281;22583;-90
2024/04/20 05:11:39;;;;;;;;;;;;;;;4.75;99.56;95430.24;108397;1281;24222;-90
2024/04/20 05:14:06;;;;;;;;;;;;;;;4.74;99.21;95437.88;108263;1286;125253;-89
2024/04/20 05:16:37;;;;;;;;;;;;;;;4.74;99.29;95440.45;108430;1286;24254;-90
2024/04/20 05:19:05;;;;;;;;;;;;;;;4.75;99.05;95443.04;108188;1280;124931;-90
2024/04/20 05:21:33;;;;;;;;;;;;;;;4.77;98.94;95442.35;108379;1286;22675;-92
2024/04/20 05:24:02;;;;;;;;;;;;;;;4.75;98.95;95444.23;108320;1280;22516;-91
2024/04/20 05:26:33;;;;;;;;;;;;;;;4.75;98.54;95441.38;108257;1281;124660;-90
2024/04/20 05:28:59;;;;;;;;;;;;;;;4.73;98.94;95443.45;108346;1286;22628;-92
2024/04/20 05:31:26;;;;;;;;;;;;;;;4.72;99.28;95444.09;108349;1280;124803;-92
2024/04/20 05:33:52;;;;;;;;;;;;;;;4.70;99.03;95449.06;108457;1279;25388;-90
2024/04/20 05:36:18;;;;;;;;;;;;;;;4.71;99.07;95448.26;108284;1286;124931;-90
2024/04/20 05:38:46;;;;;;;;;;;;;;;4.72;98.87;95448.88;108430;1280;22538;-90
2024/04/20 05:41:12;;;;;;;;;;;;;;;4.75;99.20;95448.39;108423;1286;24219;-90
2024/04/20 05:43:38;;;;;;;;;;;;;;;4.76;99.43;95454.10;108266;1285;124758;-89
2024/04/20 05:46:05;;;;;;;;;;;;;;;4.77;98.68;95454.83;108269;1287;22495;-89
2024/04/20 05:48:33;;;;;;;;;;;;;;;4.79;99.36;95460.80;108211;1286;126577;-91
2024/04/20 05:51:00;;;;;;;;;;;;;;;4.80;98.97;95461.86;108309;1279;23362;-91
2024/04/20 05:53:26;;;;;;;;;;;;;;;4.80;98.66;95462.86;108339;1280;24433;-89
2024/04/20 05:55:52;;;;;;;;;;;;;;;4.82;98.35;95464.42;108276;1280;124765;-90
2024/04/20 05:58:19;;;;;;;;;;;;;;;4.83;98.35;95463.38;108343;1280;22518;-89
2024/04/20 06:00:47;;;;;;;;;;;;;;;4.83;98.12;95464.24;108207;1287;124973;-90
2024/04/20 06:03:16;;;;;;;;;;;;;;;4.82;98.14;95459.38;108320;1286;22573;-90
2024/04/20 06:05:46;;;;;;;;;;;;;;;4.82;98.07;95468.12;108312;1280;22555;-89
2024/04/20 06:08:12;;;;;;;;;;;;;;;4.87;97.87;95469.61;108312;1286;124824;-90
2024/04/20 06:10:40;;;;;;;;;;;;;;;4.90;98.23;95470.97;108469;1283;22541;-90
2024/04/20 06:13:07;;;;;;;;;;;;;;;4.93;98.44;95470.55;108287;1283;128218;-90
2024/04/20 06:15:37;;;;;;;;;;;;;;;4.96;97.44;95474.20;108437;1286;22532;-90
2024/04/20 06:18:03;;;;;;;;;;;;;;;4.98;97.81;95473.84;108345;1286;25170;-90
2024/04/20 06:20:32;;;;;;;;;;;;;;;5.00;97.88;95477.71;108224;1283;125255;-90
2024/04/20 06:23:00;;;;;;;;;;;;;;;5.02;97.88;95478.63;108366;1285;22567;-91
2024/04/20 06:25:27;;;;;;;;;;;;;;;5.04;97.34;95478.83;108247;1283;125251;-91
2024/04/20 06:27:56;;;;;;;;;;;;;;;5.05;97.05;95485.08;108462;1277;23193;-91
2024/04/20 06:30:26;;;;;;;;;;;;;;;5.06;97.48;95488.03;108333;1278;125505;-92
2024/04/20 06:32:53;;;;;;;;;;;;;;;5.09;97.62;95488.02;108361;1278;22634;-92
2024/04/20 06:35:19;;;;;;;;;;;;;;;5.12;97.33;95492.46;108364;1285;22544;-92
2024/04/20 06:37:48;;;;;;;;;;;;;;;5.16;97.34;95493.40;108327;1280;124823;-91
2024/04/20 06:40:15;;;;;;;;;;;;;;;5.20;97.45;95496.98;108409;1284;23189;-91
2024/04/20 06:42:45;;;;;;;;;;;;;;;5.22;97.53;95500.31;108341;1284;125318;-90
2024/04/20 06:45:13;;;;;;;;;;;;;;;5.26;97.47;95502.82;108416;1285;24575;-92
2024/04/20 06:47:39;;;;;;;;;;;;;;;5.29;97.35;95501.64;108475;1281;24181;-93
2024/04/20 06:50:07;;;;;;;;;;;;;;;5.32;97.64;95503.90;108283;1278;125034;-90
2024/04/20 06:52:34;;;;;;;;;;;;;;;5.35;96.97;95505.36;108484;1280;22738;-91
2024/04/20 06:55:02;;;;;;;;;;;;;;;5.42;97.86;95503.63;108365;1285;125237;-91
2024/04/20 06:57:30;;;;;;;;;;;;;;;5.49;97.89;95503.10;108470;1284;22506;-91
2024/04/20 06:59:59;;;;;;;;;;;;;;;5.54;97.47;95502.27;108420;1268;22630;-92
2024/04/20 07:02:26;;;;;;;;;;;;;;;5.58;97.25;95506.84;108355;1278;124985;-92
2024/04/20 07:04:52;;;;;;;;;;;;;;;5.65;97.39;95508.96;108400;1270;25437;-91
2024/04/20 07:07:19;;;;;;;;;;;;;;;5.70;97.18;95506.33;108374;1277;124757;-92
2024/04/20 07:09:51;;;;;;;;;;;;;;;5.73;96.96;95512.70;108505;1285;22509;-91
2024/04/20 07:12:17;;;;;;;;;;;;;;;5.77;96.98;95513.42;108459;1283;22602;-92
2024/04/20 07:17:49;;;;;;;;;;;;;;;5.87;95.16;95518.41;108389;1284;22503;-92
2024/04/20 07:20:18;;;;;;;;;;;;;;;5.90;95.88;95522.91;108482;1280;124796;-91
2024/04/20 07:22:45;;;;;;;;;;;;;;;5.94;95.90;95524.77;108286;1283;22509;-91
2024/04/20 07:25:15;;;;;;;;;;;;;;;5.97;95.97;95521.92;108328;1286;124934;-92
2024/04/20 07:27:47;;;;;;;;;;;;;;;6.02;96.26;95523.66;108355;1280;22502;-89
2024/04/20 07:30:13;;;;;;;;;;;;;;;6.09;96.08;95531.67;108430;1278;25410;-90
2024/04/20 07:32:39;;;;;;;;;;;;;;;6.09;95.07;95533.34;108269;1278;124839;-91
2024/04/20 07:35:06;;;;;;;;;;;;;;;6.07;95.18;95535.30;108473;1284;25513;-90
2024/04/20 07:37:32;;;;;;;;;;;;;;;6.11;95.23;95539.55;108304;1281;124846;-90
2024/04/20 07:39:58;;;;;;;;;;;;;;;6.10;95.27;95546.52;108437;1283;22547;-90
2024/04/20 07:42:25;;;;;;;;;;;;;;;6.12;95.10;95546.42;108466;1285;22555;-89
2024/04/20 07:44:51;;;;;;;;;;;;;;;6.12;94.36;95548.34;108340;1285;124589;-89
2024/04/20 07:47:20;;;;;;;;;;;;;;;6.14;94.39;95553.29;108396;1285;22552;-89
2024/04/20 07:49:47;;;;;;;;;;;;;;;6.18;94.04;95554.52;108212;1278;125048;-89
2024/04/20 07:52:16;;;;;;;;;;;;;;;6.22;94.07;95552.13;108473;1284;23857;-91
2024/04/20 07:54:42;;;;;;;;;;;;;;;6.29;94.64;95557.66;108279;1285;125019;-90
2024/04/20 07:57:09;;;;;;;;;;;;;;;6.35;94.47;95558.27;108314;1285;25223;-90
2024/04/20 07:59:39;;;;;;;;;;;;;;;6.38;95.30;95563.05;108368;1285;22541;-90
2024/04/20 08:02:22;;;;;;;;;;;;;;;6.46;94.96;95565.70;108246;1283;124753;-89
2024/04/20 08:04:58;;;;;;;;;;;;;;;6.56;95.11;95571.33;108232;1283;22544;-87
2024/04/20 08:07:29;;;;;;;;;;;;;;;6.62;94.75;95571.73;108387;1277;124718;-91
2024/04/20 08:09:56;;;;;;;;;;;;;;;6.68;94.60;95575.66;108522;1280;22663;-90
2024/04/20 08:12:22;;;;;;;;;;;;;;;6.73;93.43;95578.29;108405;1283;22552;-88
2024/04/20 08:14:48;;;;;;;;;;;;;;;6.76;92.90;95578.61;108313;1276;124702;-89
2024/04/20 08:17:17;;;;;;;;;;;;;;;6.83;93.31;95578.11;108404;1283;22525;-89
2024/04/20 08:19:44;;;;;;;;;;;;;;;6.91;93.30;95579.93;108286;1283;125113;-89
2024/04/20 08:22:18;;;;;;;;;;;;;;;6.99;92.97;95581.81;108343;1277;22549;-89
2024/04/20 08:24:47;;;;;;;;;;;;;;;7.04;91.34;95585.35;108364;1284;124952;-90
2024/04/20 08:27:33;;;;;;;;;;;;;;;7.09;92.16;95587.00;108468;1280;22545;-89
2024/04/20 08:30:01;;;;;;;;;;;;;;;7.14;91.24;95587.38;108383;1279;22664;-90
2024/04/20 08:32:28;;;;;;;;;;;;;;;7.19;91.10;95589.27;108254;1285;125548;-89
2024/04/20 08:34:54;;;;;;;;;;;;;;;7.23;90.87;95595.48;108434;1283;22538;-90
2024/04/20 08:37:34;;;;;;;;;;;;;;;7.24;90.79;95595.54;108392;1281;124815;-90
2024/04/20 08:40:03;;;;;;;;;;;;;;;7.25;90.07;95595.95;108341;1285;22491;-89
2024/04/20 08:42:42;;;;;;;;;;;;;;;;;;;;;
2024/04/20 08:45:19;;;;;;;;;;;;;;;7.37;89.52;95595.70;108297;1280;24266;-87
2024/04/20 08:47:45;;;;;;;;;;;;;;;7.46;90.59;95596.92;108471;1274;22516;-89
2024/04/20 08:50:15;;;;;;;;;;;;;;;7.57;89.67;95598.42;108256;1285;125182;-87
2024/04/20 08:52:41;;;;;;;;;;;;;;;7.64;89.83;95603.92;108591;1278;22625;-89
2024/04/20 08:55:08;;;;;;;;;;;;;;;7.70;89.30;95603.39;108449;1277;124935;-91
2024/04/20 08:57:37;;;;;;;;;;;;;;;7.74;89.58;95608.13;108705;1276;25224;-90
2024/04/20 09:00:04;;;;;;;;;;;;;;;7.76;87.66;95611.09;108574;1279;22631;-90
2024/04/20 09:02:32;;;;;;;;;;;;;;;7.73;87.20;95614.01;108580;1284;125282;-90
2024/04/20 09:05:01;;;;;;;;;;;;;;;7.70;87.42;95623.05;108558;1284;22549;-92
2024/04/20 09:07:27;;;;;;;;;;;;;;;7.64;87.43;95627.51;108386;1285;124944;-90
2024/04/20 09:09:54;;;;;;;;;;;;;;;7.55;88.50;95636.52;108511;1285;22579;-90
2024/04/20 09:12:23;;;;;;;;;;;;;;;7.40;90.41;95641.77;108363;1278;23861;-90
2024/04/20 09:14:53;;;;;;;;;;;;;;;7.24;91.16;95649.80;108421;1277;124745;-90
2024/04/20 09:17:21;;;;;;;;;;;;;;;7.10;92.70;95653.73;108529;1283;23231;-89
2024/04/20 09:19:53;;;;;;;;;;;;;;;6.99;94.05;95656.30;108170;1279;125236;-89
2024/04/20 09:22:19;;;;;;;;;;;;;;;6.89;94.38;95659.57;108260;1285;22589;-88
2024/04/20 09:24:46;;;;;;;;;;;;;;;6.77;94.01;95661.52;108208;1285;125099;-89
2024/04/20 09:27:12;;;;;;;;;;;;;;;6.72;95.13;95665.81;108345;1280;23459;-89
2024/04/20 09:29:40;;;;;;;;;;;;;;;6.70;96.01;95667.52;108344;1286;23392;-88
2024/04/20 09:32:07;;;;;;;;;;;;;;;6.70;97.23;95666.94;108220;1280;125085;-90
2024/04/20 09:34:33;;;;;;;;;;;;;;;6.76;99.27;95672.55;108346;1286;24448;-90
2024/04/20 09:37:04;;;;;;;;;;;;;;;6.80;97.55;95672.16;108245;1277;125190;-90
2024/04/20 09:39:30;;;;;;;;;;;;;;;6.81;98.09;95672.58;108541;1280;25374;-89
2024/04/20 09:42:00;;;;;;;;;;;;;;;6.80;98.80;95676.73;108712;1283;25383;-92
2024/04/20 09:44:27;;;;;;;;;;;;;;;6.81;98.34;95678.17;108521;1286;125002;-90
2024/04/20 09:46:54;;;;;;;;;;;;;;;6.73;97.92;95679.38;108474;1286;22517;-91
2024/04/20 09:49:20;;;;;;;;;;;;;;;6.66;98.32;95681.20;108435;1279;125159;-89
2024/04/20 09:51:59;;;;;;;;;;;;;;;6.62;99.06;95683.84;108391;1279;25250;-90
2024/04/20 09:54:26;;;;;;;;;;;;;;;6.54;98.96;95689.02;108468;1286;23243;-91
2024/04/20 09:56:53;;;;;;;;;;;;;;;6.50;99.72;95691.39;108425;1286;124955;-90
2024/04/20 09:59:19;;;;;;;;;;;;;;;6.49;100.00;95693.85;108301;1283;23295;-89
2024/04/20 10:01:46;;;;;;;;;;;;;;;6.55;100.00;95693.46;108259;1281;125271;-90
2024/04/20 10:04:12;;;;;;;;;;;;;;;6.61;100.00;95693.52;108293;1283;22471;-88
2024/04/20 10:06:40;;;;;;;;;;;;;;;6.67;100.00;95689.83;108140;1281;125708;-89
2024/04/20 10:09:07;;;;;;;;;;;;;;;6.72;100.00;95685.84;108394;1278;22632;-90
2024/04/20 10:11:35;;;;;;;;;;;;;;;6.78;100.00;95689.92;108475;1277;22976;-90
2024/04/20 10:14:03;;;;;;;;;;;;;;;6.83;100.00;95689.66;108378;1286;125066;-91
2024/04/20 10:16:32;;;;;;;;;;;;;;;6.87;100.00;95691.09;108640;1286;22506;-93
2024/04/20 10:18:58;;;;;;;;;;;;;;;6.89;100.00;95696.75;108442;1286;125426;-92
2024/04/20 10:21:25;;;;;;;;;;;;;;;6.92;100.00;95697.04;108362;1284;256768;-92
2024/04/20 10:23:52;;;;;;;;;;;;;;;6.93;100.00;95699.83;108499;1286;22567;-92
2024/04/20 10:26:30;;;;;;;;;;;;;;;6.91;100.00;95704.48;108539;1279;125078;-92
2024/04/20 10:29:07;;;;;;;;;;;;;;;6.90;100.00;95707.42;108592;1284;22602;-90
2024/04/20 10:31:33;;;;;;;;;;;;;;;6.91;100.00;95709.96;108436;1285;125114;-91
2024/04/20 10:34:00;;;;;;;;;;;;;;;6.87;100.00;95710.26;108656;1280;23220;-92
2024/04/20 10:36:26;;;;;;;;;;;;;;;6.79;100.00;95716.09;108581;1280;22622;-92
2024/04/20 10:39:04;;;;;;;;;;;;;;;6.75;100.00;95715.23;108479;1283;125484;-89
2024/04/20 10:41:34;;;;;;;;;;;;;;;6.74;100.00;95720.38;108528;1283;22467;-92
2024/04/20 10:44:15;;;;;;;;;;;;;;;6.73;100.00;95722.20;108446;1285;126479;-91
2024/04/20 10:46:52;;;;;;;;;;;;;;;6.68;100.00;95721.20;108550;1285;22506;-92
2024/04/20 10:49:24;;;;;;;;;;;;;;;6.65;100.00;95726.38;108558;1280;125402;-91
2024/04/20 10:51:54;;;;;;;;;;;;;;;6.64;100.00;95729.58;108252;1278;22573;-92
2024/04/20 10:54:20;;;;;;;;;;;;;;;6.59;100.00;95737.33;108519;1281;22757;-91
2024/04/20 10:56:49;;;;;;;;;;;;;;;6.57;100.00;95741.35;108596;1283;124961;-91
2024/04/20 10:59:16;;;;;;;;;;;;;;;6.55;100.00;95745.37;108450;1285;23362;-91
2024/04/20 11:01:42;;;;;;;;;;;;;;;6.58;100.00;95746.58;108402;1285;125149;-92
2024/04/20 11:04:16;;;;;;;;;;;;;;;6.61;100.00;95751.70;108479;1285;25399;-91
2024/04/20 11:06:42;;;;;;;;;;;;;;;6.58;100.00;95750.30;108533;1270;25750;-91
2024/04/20 11:09:09;;;;;;;;;;;;;;;6.50;100.00;95751.91;108587;1278;22516;-91
2024/04/20 11:11:36;;;;;;;;;;;;;;;6.48;100.00;95753.69;108572;1284;22579;-92
2024/04/20 11:14:05;;;;;;;;;;;;;;;6.50;100.00;95757.27;108468;1283;125097;-91
2024/04/20 11:16:31;;;;;;;;;;;;;;;6.47;100.00;95764.46;108599;1278;22531;-92
2024/04/20 11:19:00;;;;;;;;;;;;;;;6.44;100.00;95768.34;108434;1282;125172;-92
2024/04/20 11:21:28;;;;;;;;;;;;;;;6.42;100.00;95771.41;108330;1285;22556;-93
2024/04/20 11:23:55;;;;;;;;;;;;;;;6.43;100.00;95771.83;108539;1283;24052;-92
2024/04/20 11:26:23;;;;;;;;;;;;;;;6.41;100.00;95779.09;108365;1280;125236;-92
2024/04/20 11:28:52;;;;;;;;;;;;;;;6.41;100.00;95777.55;108450;1285;22552;-92
2024/04/20 11:31:22;;;;;;;;;;;;;;;6.50;100.00;95781.20;108428;1284;125332;-92
2024/04/20 11:33:48;;;;;;;;;;;;;;;6.54;100.00;95786.58;108454;1285;23863;-92
2024/04/20 11:36:15;;;;;;;;;;;;;;;6.57;100.00;95788.20;108477;1276;22649;-92
2024/04/20 11:38:44;;;;;;;;;;;;;;;6.57;100.00;95792.27;108477;1285;125177;-91
2024/04/20 11:41:17;;;;;;;;;;;;;;;6.58;100.00;95795.65;108625;1276;22574;-90
2024/04/20 11:43:44;;;;;;;;;;;;;;;6.63;100.00;95800.34;108391;1279;125022;-90
2024/04/20 11:46:11;;;;;;;;;;;;;;;6.64;100.00;95800.95;108370;1284;22513;-90
2024/04/20 11:48:38;;;;;;;;;;;;;;;6.59;100.00;95803.09;108435;1280;22549;-90
2024/04/20 11:51:07;;;;;;;;;;;;;;;6.57;99.98;95804.98;108454;1284;124742;-90
2024/04/20 11:56:23;;;;;;;;;;;;;;;6.54;100.00;95810.39;108499;1278;124936;-90
2024/04/20 11:58:51;;;;;;;;;;;;;;;6.56;100.00;95812.69;108422;1282;22593;-89
2024/04/20 12:01:17;;;;;;;;;;;;;;;6.59;100.00;95815.92;108294;1285;125151;-89
2024/04/20 12:03:47;;;;;;;;;;;;;;;6.61;100.00;95815.55;108261;1285;22537;-89
2024/04/20 12:06:22;;;;;;;;;;;;;;;6.63;100.00;95811.41;108345;1285;25394;-90
2024/04/20 12:08:48;;;;;;;;;;;;;;;6.67;100.00;95814.27;108243;1278;125109;-89
2024/04/20 12:11:17;;;;;;;;;;;;;;;6.70;100.00;95814.91;108281;1285;25237;-90
2024/04/20 12:13:46;;;;;;;;;;;;;;;6.73;100.00;95817.02;108331;1279;125473;-89
2024/04/20 12:16:12;;;;;;;;;;;;;;;6.78;100.00;95820.39;108506;1285;22539;-89
2024/04/20 12:18:38;;;;;;;;;;;;;;;6.84;100.00;95822.66;108516;1284;22568;-90
2024/04/20 12:21:12;;;;;;;;;;;;;;;6.84;100.00;95824.92;108417;1278;124848;-90
2024/04/20 12:23:39;;;;;;;;;;;;;;;6.81;100.00;95823.69;108530;1284;22609;-89
2024/04/20 12:26:07;;;;;;;;;;;;;;;6.80;100.00;95826.14;108513;1282;125139;-89
2024/04/20 12:28:33;;;;;;;;;;;;;;;6.79;99.96;95827.35;108503;1285;22607;-90
2024/04/20 12:31:00;;;;;;;;;;;;;;;6.77;100.00;95827.96;108338;1284;125538;-89
2024/04/20 12:33:27;;;;;;;;;;;;;;;6.74;99.80;95828.82;108561;1285;25414;-90
2024/04/20 12:35:57;;;;;;;;;;;;;;;6.75;99.96;95825.98;108454;1280;22587;-89
2024/04/20 12:38:26;;;;;;;;;;;;;;;6.76;99.81;95831.12;108436;1267;124777;-90
2024/04/20 12:40:53;;;;;;;;;;;;;;;6.77;99.99;95832.56;108496;1279;22532;-89
2024/04/20 12:43:20;;;;;;;;;;;;;;;6.82;100.00;95833.18;108441;1271;124989;-89
2024/04/20 12:45:49;;;;;;;;;;;;;;;6.89;100.00;95833.14;108555;1285;22607;-90
2024/04/20 12:48:16;;;;;;;;;;;;;;;6.93;100.00;95835.59;108476;1280;22557;-90
2024/04/20 12:50:42;;;;;;;;;;;;;;;6.99;100.00;95833.84;108470;1280;124963;-91